Observation data for Levelland on 06/20/2019      Previous  Date  Next       Current Mesonet Observations  Soil Data  Daily Summary Page  Observations in Plain Language
KLD1 200500Z 12006KT 22/14 A2987 RMK A01 T02240138  RH  061%=      5-min Rain = 0
KLD1 200505Z 11005KT 23/14 A2987 RMK A01 T02310139  RH  059%=      5-min Rain = 0
KLD1 200510Z 10004KT 22/14 A2987 RMK A01 T02160138  RH  064%=      5-min Rain = 0
KLD1 200515Z 12006KT 21/14 A2987 RMK A01 T02120140  RH  066%=      5-min Rain = 0
KLD1 200520Z 13007KT 23/14 A2987 RMK A01 T02250143  RH  063%=      5-min Rain = 0
KLD1 200525Z 13008KT 23/15 A2987 RMK A01 T02290145  RH  062%=      5-min Rain = 0
KLD1 200530Z 14007KT 23/15 A2987 RMK A01 T02300145  RH  062%=      5-min Rain = 0
KLD1 200535Z 13007KT 23/15 A2987 RMK A01 T02300146  RH  062%=      5-min Rain = 0
KLD1 200540Z 13006KT 23/15 A2987 RMK A01 T02290147  RH  063%=      5-min Rain = 0
KLD1 200545Z 13007KT 23/15 A2987 RMK A01 T02260147  RH  064%=      5-min Rain = 0
KLD1 200550Z 13008KT 23/15 A2987 RMK A01 T02260147  RH  064%=      5-min Rain = 0
KLD1 200555Z 12008KT 23/15 A2987 RMK A01 T02270147  RH  063%=      5-min Rain = 0
KLD1 200600Z 12008KT 22/15 A2987 RMK A01 T02230149  RH  066%=      5-min Rain = 0
KLD1 200605Z 11008KT 23/15 A2988 RMK A01 T02250149  RH  065%=      5-min Rain = 0
KLD1 200610Z 11008KT 22/15 A2988 RMK A01 T02160148  RH  068%=      5-min Rain = 0
KLD1 200615Z 13008KT 22/15 A2987 RMK A01 T02180149  RH  068%=      5-min Rain = 0
KLD1 200620Z 13008KT 22/15 A2987 RMK A01 T02200150  RH  067%=      5-min Rain = 0
KLD1 200625Z 13009KT 22/15 A2987 RMK A01 T02230152  RH  067%=      5-min Rain = 0
KLD1 200630Z 13009KT 22/16 A2987 RMK A01 T02230155  RH  068%=      5-min Rain = 0
KLD1 200635Z 14009KT 22/16 A2988 RMK A01 T02210155  RH  069%=      5-min Rain = 0
KLD1 200640Z 14009KT 22/16 A2987 RMK A01 T02190157  RH  071%=      5-min Rain = 0
KLD1 200645Z 13009KT 22/16 A2988 RMK A01 T02190159  RH  072%=      5-min Rain = 0
KLD1 200650Z 13009KT 22/16 A2988 RMK A01 T02190162  RH  073%=      5-min Rain = 0
KLD1 200655Z 13009KT 22/16 A2987 RMK A01 T02190164  RH  074%=      5-min Rain = 0
KLD1 200700Z 13010KT 22/17 A2987 RMK A01 T02200168  RH  076%=      5-min Rain = 0
KLD1 200705Z 13009KT 22/17 A2987 RMK A01 T02190169  RH  077%=      5-min Rain = 0
KLD1 200710Z 13009KT 22/17 A2986 RMK A01 T02180171  RH  078%=      5-min Rain = 0
KLD1 200715Z 13009KT 22/17 A2986 RMK A01 T02170172  RH  079%=      5-min Rain = 0
KLD1 200720Z 13009KT 22/17 A2986 RMK A01 T02180173  RH  080%=      5-min Rain = 0
KLD1 200725Z 13010KT 22/17 A2986 RMK A01 T02170172  RH  080%=      5-min Rain = 0
KLD1 200730Z 13010KT 22/17 A2986 RMK A01 T02170173  RH  080%=      5-min Rain = 0
KLD1 200735Z 13010KT 22/17 A2986 RMK A01 T02170173  RH  080%=      5-min Rain = 0
KLD1 200740Z 13010KT 22/17 A2985 RMK A01 T02170172  RH  080%=      5-min Rain = 0
KLD1 200745Z 13009KT 22/17 A2985 RMK A01 T02160172  RH  080%=      5-min Rain = 0
KLD1 200750Z 13010KT 22/17 A2985 RMK A01 T02160171  RH  080%=      5-min Rain = 0
KLD1 200755Z 13010KT 22/17 A2985 RMK A01 T02160171  RH  079%=      5-min Rain = 0
KLD1 200800Z 13009KT 22/17 A2985 RMK A01 T02150170  RH  079%=      5-min Rain = 0
KLD1 200805Z 13008KT 21/17 A2985 RMK A01 T02140170  RH  080%=      5-min Rain = 0
KLD1 200810Z 13008KT 21/17 A2985 RMK A01 T02120169  RH  080%=      5-min Rain = 0
KLD1 200815Z 13009KT 21/17 A2984 RMK A01 T02110169  RH  081%=      5-min Rain = 0
KLD1 200820Z 13008KT 21/17 A2984 RMK A01 T02090169  RH  082%=      5-min Rain = 0
KLD1 200825Z 13007KT 21/17 A2984 RMK A01 T02070168  RH  083%=      5-min Rain = 0
KLD1 200830Z 13006KT 21/17 A2984 RMK A01 T02050168  RH  083%=      5-min Rain = 0
KLD1 200835Z 14005KT 20/17 A2984 RMK A01 T02030167  RH  084%=      5-min Rain = 0
KLD1 200840Z 15006KT 20/17 A2984 RMK A01 T02010167  RH  084%=      5-min Rain = 0
KLD1 200845Z 17006KT 20/17 A2984 RMK A01 T01990165  RH  084%=      5-min Rain = 0
KLD1 200850Z 16005KT 20/16 A2984 RMK A01 T01970163  RH  085%=      5-min Rain = 0
KLD1 200855Z 16006KT 20/16 A2984 RMK A01 T01960163  RH  085%=      5-min Rain = 0
KLD1 200900Z 15006KT 20/16 A2984 RMK A01 T01950162  RH  085%=      5-min Rain = 0
KLD1 200905Z 14008KT 20/16 A2984 RMK A01 T01950162  RH  085%=      5-min Rain = 0
KLD1 200910Z 14006KT 20/16 A2984 RMK A01 T01950161  RH  085%=      5-min Rain = 0
KLD1 200915Z 14006KT 19/16 A2984 RMK A01 T01930160  RH  085%=      5-min Rain = 0
KLD1 200920Z 14006KT 19/16 A2984 RMK A01 T01920159  RH  085%=      5-min Rain = 0
KLD1 200925Z 14004KT 19/16 A2984 RMK A01 T01910158  RH  085%=      5-min Rain = 0
KLD1 200930Z 13004KT 19/16 A2984 RMK A01 T01900156  RH  085%=      5-min Rain = 0
KLD1 200935Z 13005KT 19/16 A2984 RMK A01 T01850155  RH  086%=      5-min Rain = 0
KLD1 200940Z 13005KT 19/16 A2983 RMK A01 T01850155  RH  087%=      5-min Rain = 0
KLD1 200945Z 13005KT 18/15 A2983 RMK A01 T01830154  RH  087%=      5-min Rain = 0
KLD1 200950Z 15004KT 18/15 A2983 RMK A01 T01810154  RH  088%=      5-min Rain = 0
KLD1 200955Z 16005KT 18/15 A2983 RMK A01 T01820153  RH  087%=      5-min Rain = 0
KLD1 201000Z 16006KT 18/15 A2983 RMK A01 T01820153  RH  087%=      5-min Rain = 0
KLD1 201005Z 12003KT 18/15 A2983 RMK A01 T01800151  RH  087%=      5-min Rain = 0
KLD1 201010Z 09002KT 17/14 A2984 RMK A01 T01690142  RH  088%=      5-min Rain = 0
KLD1 201015Z 15004KT 17/15 A2984 RMK A01 T01690148  RH  091%=      5-min Rain = 0
KLD1 201020Z 16005KT 17/15 A2983 RMK A01 T01720149  RH  090%=      5-min Rain = 0
KLD1 201025Z 17004KT 17/15 A2983 RMK A01 T01730149  RH  090%=      5-min Rain = 0
KLD1 201030Z 17005KT 17/15 A2983 RMK A01 T01730149  RH  090%=      5-min Rain = 0
KLD1 201035Z 17005KT 17/15 A2983 RMK A01 T01730148  RH  089%=      5-min Rain = 0
KLD1 201040Z 18004KT 17/15 A2983 RMK A01 T01720147  RH  090%=      5-min Rain = 0
KLD1 201045Z 18003KT 17/15 A2983 RMK A01 T01710147  RH  090%=      5-min Rain = 0
KLD1 201050Z 19004KT 17/15 A2983 RMK A01 T01700146  RH  090%=      5-min Rain = 0
KLD1 201055Z 18003KT 17/15 A2984 RMK A01 T01700147  RH  090%=      5-min Rain = 0
KLD1 201100Z 16003KT 17/14 A2984 RMK A01 T01670144  RH  090%=      5-min Rain = 0
KLD1 201105Z 15004KT 17/14 A2984 RMK A01 T01660144  RH  091%=      5-min Rain = 0
KLD1 201110Z 15003KT 17/15 A2984 RMK A01 T01670145  RH  091%=      5-min Rain = 0
KLD1 201115Z 17002KT 16/14 A2984 RMK A01 T01640141  RH  090%=      5-min Rain = 0
KLD1 201120Z 19004KT 16/14 A2984 RMK A01 T01630142  RH  091%=      5-min Rain = 0
KLD1 201125Z 20004KT 16/14 A2984 RMK A01 T01640144  RH  092%=      5-min Rain = 0
KLD1 201130Z 19004KT 16/14 A2983 RMK A01 T01620141  RH  091%=      5-min Rain = 0
KLD1 201135Z 21005KT 16/14 A2983 RMK A01 T01640144  RH  092%=      5-min Rain = 0
KLD1 201140Z 23005KT 17/15 A2984 RMK A01 T01650145  RH  092%=      5-min Rain = 0
KLD1 201145Z 24005KT 16/14 A2984 RMK A01 T01640144  RH  092%=      5-min Rain = 0
KLD1 201150Z 25004KT 16/14 A2984 RMK A01 T01610139  RH  090%=      5-min Rain = 0
KLD1 201155Z 22004KT 16/14 A2984 RMK A01 T01570138  RH  092%=      5-min Rain = 0
KLD1 201200Z 26004KT 16/14 A2985 RMK A01 T01560138  RH  092%=      5-min Rain = 0
KLD1 201205Z 25004KT 16/14 A2985 RMK A01 T01560139  RH  093%=      5-min Rain = 0
KLD1 201210Z 25004KT 16/14 A2985 RMK A01 T01580140  RH  093%=      5-min Rain = 0
KLD1 201215Z 25003KT 16/14 A2985 RMK A01 T01600142  RH  093%=      5-min Rain = 0
KLD1 201220Z 25003KT 16/14 A2985 RMK A01 T01610141  RH  092%=      5-min Rain = 0
KLD1 201225Z 25002KT 16/15 A2985 RMK A01 T01640145  RH  092%=      5-min Rain = 0
KLD1 201230Z 25004KT 17/15 A2986 RMK A01 T01690148  RH  091%=      5-min Rain = 0
KLD1 201235Z 26004KT 17/15 A2986 RMK A01 T01740148  RH  089%=      5-min Rain = 0
KLD1 201240Z 26004KT 18/15 A2986 RMK A01 T01780147  RH  086%=      5-min Rain = 0
KLD1 201245Z 27004KT 18/15 A2986 RMK A01 T01830147  RH  083%=      5-min Rain = 0
KLD1 201250Z 29005KT 19/15 A2986 RMK A01 T01870146  RH  081%=      5-min Rain = 0
KLD1 201255Z 29005KT 19/15 A2985 RMK A01 T01920145  RH  077%=      5-min Rain = 0
KLD1 201300Z 31005KT 20/15 A2985 RMK A01 T01990146  RH  074%=      5-min Rain = 0
KLD1 201305Z 29005KT 20/14 A2986 RMK A01 T02040144  RH  071%=      5-min Rain = 0
KLD1 201310Z 32004KT 21/14 A2985 RMK A01 T02100142  RH  068%=      5-min Rain = 0
KLD1 201315Z 28004G9KT 22/14 A2986 RMK A01 T02160141  RH  065%=      5-min Rain = 0
KLD1 201320Z 30005G10KT 22/14 A2986 RMK A01 T02200140  RH  063%=      5-min Rain = 0
KLD1 201325Z 32005KT 22/14 A2986 RMK A01 T02230139  RH  062%=      5-min Rain = 0
KLD1 201330Z 28005KT 23/14 A2986 RMK A01 T02290139  RH  059%=      5-min Rain = 0
KLD1 201335Z 28006KT 23/14 A2987 RMK A01 T02320143  RH  060%=      5-min Rain = 0
KLD1 201340Z 30005KT 23/14 A2986 RMK A01 T02320142  RH  060%=      5-min Rain = 0
KLD1 201345Z 28005KT 24/14 A2986 RMK A01 T02350140  RH  058%=      5-min Rain = 0
KLD1 201350Z 27005KT 24/14 A2986 RMK A01 T02400142  RH  057%=      5-min Rain = 0
KLD1 201355Z 27006KT 24/14 A2987 RMK A01 T02440144  RH  056%=      5-min Rain = 0
KLD1 201400Z 28006KT 24/14 A2987 RMK A01 T02420142  RH  056%=      5-min Rain = 0
KLD1 201405Z 30006KT 25/14 A2987 RMK A01 T02460139  RH  053%=      5-min Rain = 0
KLD1 201410Z 32005KT 25/13 A2986 RMK A01 T02540133  RH  049%=      5-min Rain = 0
KLD1 201415Z 28009G16KT 26/13 A2987 RMK A01 T02620134  RH  047%=      5-min Rain = 0
KLD1 201420Z 28010G15KT 26/14 A2988 RMK A01 T02630136  RH  048%=      5-min Rain = 0
KLD1 201425Z 29011KT 27/12 A2988 RMK A01 T02680124  RH  043%=      5-min Rain = 0
KLD1 201430Z 28009KT 27/12 A2988 RMK A01 T02730122  RH  041%=      5-min Rain = 0
KLD1 201435Z 28007KT 28/12 A2987 RMK A01 T02780121  RH  039%=      5-min Rain = 0
KLD1 201440Z 27008KT 28/12 A2988 RMK A01 T02800116  RH  037%=      5-min Rain = 0
KLD1 201445Z 28007KT 28/11 A2987 RMK A01 T02830111  RH  036%=      5-min Rain = 0
KLD1 201450Z 27007KT 29/11 A2987 RMK A01 T02870107  RH  034%=      5-min Rain = 0
KLD1 201455Z 27007KT 29/10 A2987 RMK A01 T02920104  RH  032%=      5-min Rain = 0
KLD1 201500Z 28007KT 30/09 A2987 RMK A01 T02980094  RH  029%=      5-min Rain = 0
KLD1 201505Z 28007KT 30/08 A2987 RMK A01 T03030084  RH  026%=      5-min Rain = 0
KLD1 201510Z 28007KT 31/08 A2987 RMK A01 T03090078  RH  024%=      5-min Rain = 0
KLD1 201515Z 28007KT 31/07 A2987 RMK A01 T03130070  RH  023%=      5-min Rain = 0
KLD1 201520Z 29007KT 32/06 A2987 RMK A01 T03190064  RH  021%=      5-min Rain = 0
KLD1 201525Z 29008KT 32/05 A2987 RMK A01 T03210052  RH  019%=      5-min Rain = 0
KLD1 201530Z 29008KT 32/04 A2987 RMK A01 T03240041  RH  017%=      5-min Rain = 0
KLD1 201535Z 28007KT 33/04 A2987 RMK A01 T03270043  RH  017%=      5-min Rain = 0
KLD1 201540Z 26007KT 33/04 A2987 RMK A01 T03290039  RH  016%=      5-min Rain = 0
KLD1 201545Z 27006KT 33/03 A2987 RMK A01 T03320034  RH  016%=      5-min Rain = 0
KLD1 201550Z 28006KT 34/03 A2987 RMK A01 T03350032  RH  015%=      5-min Rain = 0
KLD1 201555Z 28007KT 34/03 A2986 RMK A01 T03390031  RH  015%=      5-min Rain = 0
KLD1 201600Z 27006KT 34/03 A2986 RMK A01 T03410032  RH  015%=      5-min Rain = 0
KLD1 201605Z 26006KT 34/03 A2986 RMK A01 T03420034  RH  015%=      5-min Rain = 0
KLD1 201610Z 27007KT 34/03 A2986 RMK A01 T03420029  RH  014%=      5-min Rain = 0
KLD1 201615Z 27008KT 34/03 A2986 RMK A01 T03440027  RH  014%=      5-min Rain = 0
KLD1 201620Z 27007KT 34/02 A2986 RMK A01 T03440024  RH  014%=      5-min Rain = 0
KLD1 201625Z 29006KT 35/03 A2986 RMK A01 T03460029  RH  014%=      5-min Rain = 0
KLD1 201630Z 30006KT 35/02 A2986 RMK A01 T03480024  RH  013%=      5-min Rain = 0
KLD1 201635Z 27005KT 35/02 A2986 RMK A01 T03510023  RH  013%=      5-min Rain = 0
KLD1 201640Z 26006KT 35/03 A2986 RMK A01 T03510026  RH  013%=      5-min Rain = 0
KLD1 201645Z 23005KT 36/02 A2986 RMK A01 T03560024  RH  013%=      5-min Rain = 0
KLD1 201650Z 24005KT 36/02 A2986 RMK A01 T03560022  RH  013%=      5-min Rain = 0
KLD1 201655Z 21004G11KT 36/02 A2986 RMK A01 T03550020  RH  012%=      5-min Rain = 0
KLD1 201700Z 17004KT 36/02 A2986 RMK A01 T03570017  RH  012%=      5-min Rain = 0
KLD1 201705Z 24004KT 36/02 A2986 RMK A01 T03580021  RH  012%=      5-min Rain = 0
KLD1 201710Z 22007KT 36/03 A2986 RMK A01 T03610026  RH  012%=      5-min Rain = 0
KLD1 201715Z 20008KT 36/02 A2986 RMK A01 T03620023  RH  012%=      5-min Rain = 0
KLD1 201720Z 21006KT 36/02 A2986 RMK A01 T03640023  RH  012%=      5-min Rain = 0
KLD1 201725Z 24005KT 36/02 A2986 RMK A01 T03620023  RH  012%=      5-min Rain = 0
KLD1 201730Z 25004KT 37/02 A2986 RMK A01 T03650022  RH  012%=      5-min Rain = 0
KLD1 201735Z 23004G9KT 36/02 A2985 RMK A01 T03640024  RH  012%=      5-min Rain = 0
KLD1 201740Z 23006KT 37/02 A2985 RMK A01 T03650017  RH  011%=      5-min Rain = 0
KLD1 201745Z 24006KT 37/02 A2985 RMK A01 T03700019  RH  011%=      5-min Rain = 0
KLD1 201750Z 26006G12KT 37/02 A2985 RMK A01 T03700024  RH  012%=      5-min Rain = 0
KLD1 201755Z 25008G17KT 37/02 A2985 RMK A01 T03740024  RH  012%=      5-min Rain = 0
KLD1 201800Z 23004KT 37/02 A2985 RMK A01 T03730018  RH  011%=      5-min Rain = 0
KLD1 201805Z 20007G13KT 37/01 A2985 RMK A01 T03660011  RH  011%=      5-min Rain = 0
KLD1 201810Z 23009G15KT 38/00 A2984 RMK A01 T03770004  RH  010%=      5-min Rain = 0
KLD1 201815Z 21011G17KT 38/01 A2984 RMK A01 T03800005  RH  010%=      5-min Rain = 0
KLD1 201820Z 20010G17KT 38/01 A2984 RMK A01 T03800005  RH  010%=      5-min Rain = 0
KLD1 201825Z 24010G15KT 38/01 A2984 RMK A01 T03810008  RH  010%=      5-min Rain = 0
KLD1 201830Z 20009G16KT 38/02 A2984 RMK A01 T03830016  RH  010%=      5-min Rain = 0
KLD1 201835Z 20011G17KT 38/01 A2984 RMK A01 T03780013  RH  010%=      5-min Rain = 0
KLD1 201840Z 21011G17KT 38/02 A2984 RMK A01 T03840015  RH  010%=      5-min Rain = 0
KLD1 201845Z 25007KT 38/01 A2984 RMK A01 T03840012  RH  010%=      5-min Rain = 0
KLD1 201850Z 23009G16KT 37/01 A2984 RMK A01 T03710009  RH  011%=      5-min Rain = 0
KLD1 201855Z 23008KT 37/01 A2984 RMK A01 T03650006  RH  011%=      5-min Rain = 0
KLD1 201900Z 20009G14KT 37/00 A2984 RMK A01 T03690004  RH  010%=      5-min Rain = 0
KLD1 201905Z 21014G21KT 38/01 A2983 RMK A01 T03810011  RH  010%=      5-min Rain = 0
KLD1 201910Z 21010G15KT 39/01 A2983 RMK A01 T03850012  RH  010%=      5-min Rain = 0
KLD1 201915Z 20010G15KT 38/01 A2983 RMK A01 T03840005  RH  009%=      5-min Rain = 0
KLD1 201920Z 20013G22KT 37/00 A2983 RMK A01 T03730000  RH  010%=      5-min Rain = 0
KLD1 201925Z 19008G16KT 38/01 A2983 RMK A01 T03780006  RH  010%=      5-min Rain = 0
KLD1 201930Z 20011G16KT 38/01 A2983 RMK A01 T03780007  RH  010%=      5-min Rain = 0
KLD1 201935Z 23014G20KT 37/M00 A2983 RMK A01 T03671004  RH  010%=      5-min Rain = 0
KLD1 201940Z 20007G17KT 37/00 A2983 RMK A01 T036600-0  RH  010%=      5-min Rain = 0
KLD1 201945Z 19011G16KT 37/M01 A2983 RMK A01 T03671005  RH  010%=      5-min Rain = 0
KLD1 201950Z 20014G19KT 37/M01 A2983 RMK A01 T03691005  RH  010%=      5-min Rain = 0
KLD1 201955Z 21011G17KT 39/00 A2983 RMK A01 T03850002  RH  009%=      5-min Rain = 0
KLD1 202000Z 23009G17KT 38/M00 A2982 RMK A01 T03791002  RH  009%=      5-min Rain = 0
KLD1 202005Z 21014G21KT 38/M01 A2982 RMK A01 T03751009  RH  009%=      5-min Rain = 0
KLD1 202010Z 23015G21KT 37/M01 A2982 RMK A01 T03721006  RH  009%=      5-min Rain = 0
KLD1 202015Z 20011G16KT 37/M01 A2982 RMK A01 T03691006  RH  009%=      5-min Rain = 0
KLD1 202020Z 22014G19KT 37/M01 A2982 RMK A01 T03681009  RH  009%=      5-min Rain = 0
KLD1 202025Z 21014G19KT 37/M01 A2982 RMK A01 T03681008  RH  009%=      5-min Rain = 0
KLD1 202030Z 22008KT 37/M00 A2982 RMK A01 T03681003  RH  010%=      5-min Rain = 0
KLD1 202035Z 25009G15KT 37/M01 A2982 RMK A01 T03701007  RH  009%=      5-min Rain = 0
KLD1 202040Z 31009G14KT 37/02 A2982 RMK A01 T03680015  RH  011%=      5-min Rain = 0
KLD1 202045Z 30006KT 36/02 A2982 RMK A01 T03620017  RH  012%=      5-min Rain = 0
KLD1 202050Z 31007KT 36/02 A2982 RMK A01 T03600015  RH  012%=      5-min Rain = 0
KLD1 202055Z 33009KT 36/02 A2981 RMK A01 T03620018  RH  012%=      5-min Rain = 0
KLD1 202100Z 35008KT 37/02 A2982 RMK A01 T03650018  RH  012%=      5-min Rain = 0
KLD1 202105Z 34004KT 36/02 A2981 RMK A01 T03610015  RH  012%=      5-min Rain = 0
KLD1 202110Z 01006KT 36/01 A2981 RMK A01 T03600013  RH  011%=      5-min Rain = 0
KLD1 202115Z 01007KT 36/01 A2981 RMK A01 T03590013  RH  012%=      5-min Rain = 0
KLD1 202120Z 33005KT 36/01 A298 RMK A01 T03600012  RH  011%=      5-min Rain = 0
KLD1 202125Z 31005G11KT 37/02 A298 RMK A01 T03650016  RH  011%=      5-min Rain = 0
KLD1 202130Z 31007KT 36/01 A298 RMK A01 T03640010  RH  011%=      5-min Rain = 0
KLD1 202135Z 32005G11KT 36/01 A298 RMK A01 T03610005  RH  011%=      5-min Rain = 0
KLD1 202140Z 05002G7KT 36/01 A298 RMK A01 T03600005  RH  011%=      5-min Rain = 0
KLD1 202145Z 21003KT 36/01 A2979 RMK A01 T03620011  RH  011%=      5-min Rain = 0
KLD1 202150Z 23009G14KT 36/00 A2979 RMK A01 T03640000  RH  010%=      5-min Rain = 0
KLD1 202155Z 22014G21KT 37/M01 A2979 RMK A01 T03691012  RH  009%=      5-min Rain = 0
KLD1 202200Z 22014G21KT 37/M01 A2979 RMK A01 T03741013  RH  009%=      5-min Rain = 0
KLD1 202205Z 22016G24KT 38/M02 A2979 RMK A01 T03761015  RH  009%=      5-min Rain = 0
KLD1 202210Z 22015KT 37/M02 A2979 RMK A01 T03661017  RH  009%=      5-min Rain = 0
KLD1 202215Z 21013G19KT 37/M01 A2979 RMK A01 T03711014  RH  009%=      5-min Rain = 0
KLD1 202220Z 20015KT 37/M02 A2979 RMK A01 T03661015  RH  009%=      5-min Rain = 0
KLD1 202225Z 20015G21KT 37/M01 A2979 RMK A01 T03721014  RH  009%=      5-min Rain = 0
KLD1 202230Z 22014G20KT 38/M02 A2978 RMK A01 T03781016  RH  008%=      5-min Rain = 0
KLD1 202235Z 23015G21KT 37/M02 A2978 RMK A01 T03731019  RH  008%=      5-min Rain = 0
KLD1 202240Z 22018G24KT 38/M02 A2978 RMK A01 T03761018  RH  008%=      5-min Rain = 0
KLD1 202245Z 22017G25KT 37/M02 A2978 RMK A01 T03651020  RH  009%=      5-min Rain = 0
KLD1 202250Z 22012KT 36/M02 A2978 RMK A01 T03631020  RH  009%=      5-min Rain = 0
KLD1 202255Z 22013G20KT 36/M02 A2978 RMK A01 T03631018  RH  009%=      5-min Rain = 0
KLD1 202300Z 22014G19KT 37/M02 A2978 RMK A01 T03691018  RH  009%=      5-min Rain = 0
KLD1 202305Z 22015G21KT 38/M02 A2978 RMK A01 T03801021  RH  008%=      5-min Rain = 0
KLD1 202310Z 21012G17KT 37/M02 A2978 RMK A01 T03731021  RH  008%=      5-min Rain = 0
KLD1 202315Z 21013KT 37/M02 A2978 RMK A01 T03661022  RH  009%=      5-min Rain = 0
KLD1 202320Z 22012KT 36/M02 A2978 RMK A01 T03621023  RH  009%=      5-min Rain = 0
KLD1 202325Z 22010KT 36/M02 A2977 RMK A01 T03601023  RH  009%=      5-min Rain = 0
KLD1 202330Z 20009KT 37/M02 A2977 RMK A01 T03651018  RH  009%=      5-min Rain = 0
KLD1 202335Z 20014G21KT 37/M02 A2977 RMK A01 T03731020  RH  008%=      5-min Rain = 0
KLD1 202340Z 20016KT 38/M02 A2977 RMK A01 T03761020  RH  008%=      5-min Rain = 0
KLD1 202345Z 19017KT 38/M02 A2976 RMK A01 T03761022  RH  008%=      5-min Rain = 0
KLD1 202350Z 22017G22KT 38/M02 A2976 RMK A01 T03751021  RH  008%=      5-min Rain = 0
KLD1 202355Z 22014KT 36/M03 A2977 RMK A01 T03621025  RH  009%=      5-min Rain = 0
KLD1 210000Z 22013KT 36/M03 A2977 RMK A01 T03591026  RH  009%=      5-min Rain = 0
KLD1 210005Z 21010KT 36/M02 A2977 RMK A01 T03571024  RH  009%=      5-min Rain = 0
KLD1 210010Z 20012KT 36/M03 A2976 RMK A01 T03641025  RH  008%=      5-min Rain = 0
KLD1 210015Z 20010KT 37/M03 A2976 RMK A01 T03691025  RH  008%=      5-min Rain = 0
KLD1 210020Z 22014G20KT 37/M03 A2976 RMK A01 T03701026  RH  008%=      5-min Rain = 0
KLD1 210025Z 22015KT 37/M03 A2976 RMK A01 T03671027  RH  008%=      5-min Rain = 0
KLD1 210030Z 23014KT 36/M03 A2976 RMK A01 T03601026  RH  009%=      5-min Rain = 0
KLD1 210035Z 22012G17KT 36/M02 A2976 RMK A01 T03591023  RH  009%=      5-min Rain = 0
KLD1 210040Z 22011G16KT 36/M02 A2976 RMK A01 T03621020  RH  009%=      5-min Rain = 0
KLD1 210045Z 21012G19KT 36/M03 A2976 RMK A01 T03611025  RH  009%=      5-min Rain = 0
KLD1 210050Z 22013G18KT 36/M03 A2976 RMK A01 T03601027  RH  008%=      5-min Rain = 0
KLD1 210055Z 21015KT 36/M03 A2976 RMK A01 T03601031  RH  008%=      5-min Rain = 0
KLD1 210100Z 21012KT 36/M03 A2976 RMK A01 T03581030  RH  008%=      5-min Rain = 0
KLD1 210105Z 21013KT 36/M03 A2976 RMK A01 T03561030  RH  009%=      5-min Rain = 0
KLD1 210110Z 21013KT 35/M03 A2976 RMK A01 T03531033  RH  008%=      5-min Rain = 0
KLD1 210115Z 20012KT 35/M04 A2976 RMK A01 T03521035  RH  008%=      5-min Rain = 0
KLD1 210120Z 20011KT 35/M03 A2976 RMK A01 T03491033  RH  009%=      5-min Rain = 0
KLD1 210125Z 20010KT 34/M03 A2977 RMK A01 T03441029  RH  009%=      5-min Rain = 0
KLD1 210130Z 20009KT 34/M03 A2977 RMK A01 T03391025  RH  010%=      5-min Rain = 0
KLD1 210135Z 20010KT 34/M03 A2977 RMK A01 T03351026  RH  010%=      5-min Rain = 0
KLD1 210140Z 21009KT 33/M03 A2977 RMK A01 T03311025  RH  010%=      5-min Rain = 0
KLD1 210145Z 20009KT 32/M02 A2977 RMK A01 T03241023  RH  011%=      5-min Rain = 0
KLD1 210150Z 20009KT 32/M02 A2977 RMK A01 T03171019  RH  011%=      5-min Rain = 0
KLD1 210155Z 20008KT 31/M01 A2977 RMK A01 T03091013  RH  013%=      5-min Rain = 0
KLD1 210200Z 20008KT 30/M01 A2977 RMK A01 T03001009  RH  014%=      5-min Rain = 0
KLD1 210205Z 20008KT 29/M01 A2977 RMK A01 T02931006  RH  015%=      5-min Rain = 0
KLD1 210210Z 19009KT 29/M00 A2977 RMK A01 T02861002  RH  016%=      5-min Rain = 0
KLD1 210215Z 19009KT 28/M00 A2977 RMK A01 T02841002  RH  016%=      5-min Rain = 0
KLD1 210220Z 20010KT 29/M00 A2977 RMK A01 T02881004  RH  015%=      5-min Rain = 0
KLD1 210225Z 20010KT 29/M01 A2977 RMK A01 T02911005  RH  015%=      5-min Rain = 0
KLD1 210230Z 20009KT 29/M00 A2978 RMK A01 T02851002  RH  016%=      5-min Rain = 0
KLD1 210235Z 19009KT 28/00 A2978 RMK A01 T02790001  RH  017%=      5-min Rain = 0
KLD1 210240Z 19010KT 28/00 A2978 RMK A01 T02780002  RH  017%=      5-min Rain = 0
KLD1 210245Z 19009KT 27/00 A2978 RMK A01 T02730004  RH  018%=      5-min Rain = 0
KLD1 210250Z 19009KT 27/01 A2978 RMK A01 T02680006  RH  018%=      5-min Rain = 0
KLD1 210255Z 19010KT 26/01 A2978 RMK A01 T02630008  RH  019%=      5-min Rain = 0
KLD1 210300Z 19010KT 26/01 A2978 RMK A01 T02630008  RH  019%=      5-min Rain = 0
KLD1 210305Z 19010KT 26/01 A2979 RMK A01 T02610009  RH  019%=      5-min Rain = 0
KLD1 210310Z 19010KT 26/01 A2979 RMK A01 T02580010  RH  020%=      5-min Rain = 0
KLD1 210315Z 19010KT 26/01 A2979 RMK A01 T02590011  RH  020%=      5-min Rain = 0
KLD1 210320Z 19011KT 26/01 A2979 RMK A01 T02580011  RH  020%=      5-min Rain = 0
KLD1 210325Z 20011KT 26/01 A2979 RMK A01 T02600011  RH  020%=      5-min Rain = 0
KLD1 210330Z 19011KT 26/01 A298 RMK A01 T02600012  RH  020%=      5-min Rain = 0
KLD1 210335Z 20011KT 26/01 A298 RMK A01 T02570011  RH  020%=      5-min Rain = 0
KLD1 210340Z 20011KT 26/01 A298 RMK A01 T02550009  RH  020%=      5-min Rain = 0
KLD1 210345Z 19011KT 25/01 A298 RMK A01 T02540008  RH  020%=      5-min Rain = 0
KLD1 210350Z 19011KT 25/01 A298 RMK A01 T02540006  RH  020%=      5-min Rain = 0
KLD1 210355Z 20011KT 25/01 A298 RMK A01 T02530006  RH  020%=      5-min Rain = 0
KLD1 210400Z 20012KT 26/00 A298 RMK A01 T02550004  RH  019%=      5-min Rain = 0
KLD1 210405Z 20012KT 26/00 A298 RMK A01 T02570004  RH  019%=      5-min Rain = 0
KLD1 210410Z 20012KT 26/00 A298 RMK A01 T02560003  RH  019%=      5-min Rain = 0
KLD1 210415Z 20011KT 26/00 A298 RMK A01 T02570004  RH  019%=      5-min Rain = 0
KLD1 210420Z 20012KT 25/01 A2981 RMK A01 T02540005  RH  020%=      5-min Rain = 0
KLD1 210425Z 20011KT 25/01 A2981 RMK A01 T02530005  RH  020%=      5-min Rain = 0
KLD1 210430Z 20011KT 25/00 A2981 RMK A01 T02510004  RH  020%=      5-min Rain = 0
KLD1 210435Z 20011KT 25/00 A2981 RMK A01 T02500002  RH  020%=      5-min Rain = 0
KLD1 210440Z 20011KT 25/00 A2981 RMK A01 T02490001  RH  020%=      5-min Rain = 0
KLD1 210445Z 21011KT 25/00 A2981 RMK A01 T02490001  RH  020%=      5-min Rain = 0
KLD1 210450Z 21011KT 25/00 A2981 RMK A01 T02480002  RH  020%=      5-min Rain = 0
KLD1 210455Z 21011KT 25/00 A2981 RMK A01 T02450004  RH  021%=      5-min Rain = 0

Page generated in 0.0362 seconds.